Terminal Aerodrome Forecast
Issued by NWS Topeka, KS

Home | Current Version | Previous Version | Text Only | Print | Product List | Glossary On
Versions: 1 2 3 4 5 6 7 8 9 10 11 12 13 14 15
000
FTUS43 KTOP 282334
TAFTOP
TAF
KTOP 282334Z 2900/2924 19014G22KT P6SM FEW050
     FM290200 18010KT P6SM FEW250 WS020/21050KT
     FM291000 18010KT P6SM VCTS BKN080CB WS020/21050KT
     FM291300 18010KT P6SM VCTS BKN080CB
     FM291500 19012G20KT P6SM BKN150=

USA.gov is the U.S. government's official web portal to all federal, state and local government web resources and services.